Time;durP1;ratioP1;P1;durP2;ratioP2;P2;SDS_P1;SDS_P2;PMS_P1;PMS_P2;Temp;Humidity;BMP_temperature;BMP_pressure;BME280_temperature;BME280_humidity;BME280_pressure;Samples;Min_cycle;Max_cycle;Signal;HPM_P1;HPM_P2
2023/06/28 01:04:02;;;;;;;6.55;2.10;;;;;;;18.70;52.74;96916.53;4912746;29;20108;-87
2023/06/28 01:06:39;;;;;;;4.88;2.58;;;;;;;18.63;52.81;96913.97;4915878;29;20057;-87
2023/06/28 01:09:14;;;;;;;4.57;2.53;;;;;;;18.55;53.29;96913.50;4914212;29;20061;-87
2023/06/28 01:11:46;;;;;;;4.72;2.45;;;;;;;18.48;53.90;96913.59;4913900;29;20056;-87
2023/06/28 01:14:17;;;;;;;4.47;2.13;;;;;;;18.38;54.45;96908.81;4914913;29;20053;-87
2023/06/28 01:16:49;;;;;;;5.53;2.38;;;;;;;18.29;55.35;96916.25;4966802;23;20051;-78
2023/06/28 01:19:18;;;;;;;6.43;2.55;;;;;;;18.26;55.44;96918.53;4957474;29;20204;-77
2023/06/28 01:21:50;;;;;;;4.57;2.53;;;;;;;18.20;55.47;96909.66;4956956;29;20106;-78
2023/06/28 01:24:21;;;;;;;3.50;2.20;;;;;;;18.14;55.97;96909.75;4957044;29;20499;-79
2023/06/28 01:26:52;;;;;;;5.13;2.70;;;;;;;18.05;55.79;96915.31;4938673;29;20508;-81
2023/06/28 01:29:21;;;;;;;3.42;1.95;;;;;;;18.05;57.15;96912.69;4937746;29;20051;-79
2023/06/28 01:31:51;;;;;;;2.33;1.77;;;;;;;18.18;56.71;96908.28;4938320;29;20059;-77
2023/06/28 01:34:19;;;;;;;4.53;2.63;;;;;;;18.22;56.37;96898.88;4938254;29;20048;-77
2023/06/28 01:36:48;;;;;;;3.22;2.10;;;;;;;18.26;57.11;96897.41;4937876;29;20051;-77
2023/06/28 01:39:18;;;;;;;4.80;2.10;;;;;;;18.34;56.88;96899.72;4938504;29;20138;-78
2023/06/28 01:41:47;;;;;;;4.45;2.25;;;;;;;18.43;56.72;96894.94;4939214;29;20051;-78
2023/06/28 01:44:15;;;;;;;3.22;1.77;;;;;;;18.47;56.53;96894.25;4939460;29;20095;-77
2023/06/28 01:46:44;;;;;;;5.25;2.00;;;;;;;18.57;56.69;96895.56;4939070;29;20087;-79
2023/06/28 01:49:12;;;;;;;6.50;2.03;;;;;;;18.58;56.84;96891.88;4939398;29;20131;-77
2023/06/28 01:51:40;;;;;;;3.85;1.90;;;;;;;18.64;56.65;96893.63;4938664;29;20559;-77
2023/06/28 01:54:08;;;;;;;3.90;2.42;;;;;;;18.72;56.65;96885.41;4937755;29;20063;-77
2023/06/28 01:56:35;;;;;;;4.22;2.38;;;;;;;18.71;56.79;96884.56;4938787;29;20107;-77
2023/06/28 01:59:04;;;;;;;3.67;2.00;;;;;;;18.69;57.09;96880.53;4939425;29;20196;-78
2023/06/28 02:01:32;;;;;;;6.22;2.72;;;;;;;18.66;57.52;96886.28;4939484;29;20075;-78
2023/06/28 02:03:59;;;;;;;3.28;1.92;;;;;;;18.57;57.74;96885.00;4939664;29;20055;-77
2023/06/28 02:06:27;;;;;;;5.85;2.47;;;;;;;18.56;57.81;96884.19;4940222;29;20054;-78
2023/06/28 02:08:55;;;;;;;7.18;2.70;;;;;;;18.57;58.16;96877.09;4939761;29;20570;-78
2023/06/28 02:11:22;;;;;;;4.68;2.50;;;;;;;18.50;58.51;96877.19;4939940;29;20079;-78
2023/06/28 02:13:50;;;;;;;6.25;2.50;;;;;;;18.34;59.08;96878.59;4939590;29;20051;-78
2023/06/28 02:16:22;;;;;;;5.57;2.60;;;;;;;18.27;59.49;96883.16;4939530;29;20051;-79
2023/06/28 02:18:51;;;;;;;5.32;2.80;;;;;;;18.17;59.71;96880.25;4938331;29;20090;-77
2023/06/28 02:21:18;;;;;;;4.38;2.47;;;;;;;18.03;59.56;96885.69;4938009;29;20055;-78
2023/06/28 02:23:46;;;;;;;7.05;2.05;;;;;;;17.86;60.08;96877.59;4938284;29;20493;-77
2023/06/28 02:26:13;;;;;;;5.57;2.10;;;;;;;17.80;60.71;96867.06;4937757;29;20106;-76
2023/06/28 02:28:41;;;;;;;3.00;2.03;;;;;;;17.82;60.46;96871.16;4937779;29;20055;-79
2023/06/28 02:31:09;;;;;;;2.70;2.40;;;;;;;17.85;60.32;96864.63;4938366;29;20412;-79
2023/06/28 02:33:38;;;;;;;3.80;2.45;;;;;;;17.86;60.42;96871.50;4937951;29;20527;-77
2023/06/28 02:36:05;;;;;;;4.40;2.47;;;;;;;17.80;60.23;96873.16;4937955;29;20468;-77
2023/06/28 02:38:33;;;;;;;4.28;2.65;;;;;;;17.69;60.80;96873.91;4937762;29;20106;-78
2023/06/28 02:41:01;;;;;;;3.63;2.00;;;;;;;17.69;61.37;96866.78;4937904;29;20523;-75
2023/06/28 02:43:28;;;;;;;3.78;2.25;;;;;;;17.76;61.49;96876.47;4937597;29;20401;-78
2023/06/28 02:45:56;;;;;;;4.05;2.72;;;;;;;17.84;61.50;96868.25;4937091;29;20076;-77
2023/06/28 02:48:24;;;;;;;3.13;2.22;;;;;;;17.88;61.36;96874.72;4937648;29;20489;-77
2023/06/28 02:50:52;;;;;;;6.43;2.70;;;;;;;17.88;61.65;96870.25;4937570;29;20059;-77
2023/06/28 02:53:21;;;;;;;2.35;2.15;;;;;;;17.89;61.64;96869.22;4937148;29;20107;-77
2023/06/28 02:55:48;;;;;;;4.07;2.25;;;;;;;17.88;61.33;96874.72;4937036;29;20043;-78
2023/06/28 02:58:16;;;;;;;3.45;2.45;;;;;;;17.83;61.73;96866.66;4937018;29;20550;-77
2023/06/28 03:00:46;;;;;;;3.33;2.58;;;;;;;17.82;61.47;96863.22;4936756;29;20083;-76
2023/06/28 03:03:17;;;;;;;5.07;2.53;;;;;;;17.84;61.53;96863.00;4937045;29;20488;-78
2023/06/28 03:05:44;;;;;;;4.90;2.15;;;;;;;17.84;62.05;96860.34;4936664;29;20055;-76
2023/06/28 03:08:13;;;;;;;3.38;2.53;;;;;;;17.91;61.54;96866.38;4936294;29;20110;-77
2023/06/28 03:10:41;;;;;;;3.78;2.42;;;;;;;17.97;61.71;96869.94;4937175;29;20052;-78
2023/06/28 03:13:09;;;;;;;5.95;2.78;;;;;;;17.96;61.19;96863.88;4937056;29;20504;-78
2023/06/28 03:15:37;;;;;;;5.10;2.42;;;;;;;18.00;61.03;96861.59;4937038;29;20508;-79
2023/06/28 03:18:04;;;;;;;6.68;2.03;;;;;;;18.06;60.88;96858.03;4937489;29;20412;-76
2023/06/28 03:20:32;;;;;;;4.70;2.35;;;;;;;18.04;61.09;96858.28;4937999;29;20389;-77
2023/06/28 03:22:59;;;;;;;6.18;2.60;;;;;;;18.02;61.04;96855.06;4939030;29;20048;-78
2023/06/28 03:25:28;;;;;;;4.10;2.72;;;;;;;18.00;60.96;96856.31;4937156;29;20098;-78
2023/06/28 03:27:56;;;;;;;5.13;2.42;;;;;;;17.93;60.90;96853.75;4936889;29;20400;-78
2023/06/28 03:30:24;;;;;;;5.40;2.50;;;;;;;17.81;61.19;96855.50;4937402;29;20055;-78
2023/06/28 03:32:52;;;;;;;7.05;2.72;;;;;;;17.68;61.53;96856.44;4937471;29;20075;-77
2023/06/28 03:35:19;;;;;;;3.70;2.42;;;;;;;17.57;61.68;96863.25;4937884;29;20070;-79
2023/06/28 03:37:50;;;;;;;4.93;2.00;;;;;;;17.52;62.53;96860.50;4936921;29;20518;-77
2023/06/28 03:40:18;;;;;;;4.20;2.53;;;;;;;17.50;61.98;96859.91;4936799;29;20051;-77
2023/06/28 03:42:48;;;;;;;3.65;2.80;;;;;;;17.39;61.95;96855.34;4937073;29;20055;-78
2023/06/28 03:45:16;;;;;;;3.60;2.45;;;;;;;17.26;62.44;96859.72;4936185;29;20059;-77
2023/06/28 03:47:44;;;;;;;5.75;2.30;;;;;;;17.15;62.48;96862.28;4936959;29;20047;-80
2023/06/28 03:50:12;;;;;;;4.00;2.30;;;;;;;17.05;62.86;96854.84;4936612;29;20052;-77
2023/06/28 03:52:40;;;;;;;3.60;2.47;;;;;;;16.97;63.15;96865.69;4936468;29;20089;-77
2023/06/28 03:55:08;;;;;;;6.43;2.47;;;;;;;16.91;63.28;96869.16;4935740;29;20472;-78
2023/06/28 03:57:36;;;;;;;4.30;2.35;;;;;;;16.89;63.57;96864.09;4935905;29;20079;-77
2023/06/28 04:00:09;;;;;;;3.83;2.88;;;;;;;16.85;63.56;96866.34;4936185;29;20142;-77
2023/06/28 04:02:37;;;;;;;5.40;2.80;;;;;;;16.85;63.43;96865.56;4937207;29;20091;-77
2023/06/28 04:05:05;;;;;;;5.68;3.20;;;;;;;16.80;63.67;96868.03;4936735;29;20056;-79
2023/06/28 04:07:33;;;;;;;3.42;2.35;;;;;;;16.73;63.86;96873.31;4936690;29;20469;-78
2023/06/28 04:10:01;;;;;;;3.90;2.65;;;;;;;16.68;64.17;96881.03;4936855;29;20135;-77
2023/06/28 04:12:28;;;;;;;4.53;1.92;;;;;;;16.61;64.31;96880.28;4936642;29;20052;-77
2023/06/28 04:14:56;;;;;;;3.53;2.38;;;;;;;16.55;64.49;96881.97;4936480;29;20054;-77
2023/06/28 04:17:25;;;;;;;3.85;2.08;;;;;;;16.51;64.65;96885.22;4939990;29;20423;-78
2023/06/28 04:19:53;;;;;;;4.30;2.22;;;;;;;16.46;64.65;96888.47;4940460;29;20052;-80
2023/06/28 04:22:20;;;;;;;4.20;2.60;;;;;;;16.42;64.76;96884.66;4940309;29;20086;-79
2023/06/28 04:24:48;;;;;;;2.67;1.52;;;;;;;16.38;65.20;96894.81;4939967;29;20048;-78
2023/06/28 04:27:16;;;;;;;6.60;2.20;;;;;;;16.37;65.26;96885.28;4926952;29;20105;-78
2023/06/28 04:29:43;;;;;;;3.15;2.15;;;;;;;16.35;65.51;96881.25;4926203;29;20048;-78
2023/06/28 04:32:22;;;;;;;4.32;2.72;;;;;;;16.37;65.88;96884.50;4921565;29;20055;-77
2023/06/28 04:34:53;;;;;;;2.53;2.08;;;;;;;16.43;65.61;96894.97;4919349;29;20456;-79
2023/06/28 04:37:20;;;;;;;4.65;2.55;;;;;;;16.46;65.73;96896.38;4919787;29;20052;-78
2023/06/28 04:39:48;;;;;;;4.65;2.28;;;;;;;16.49;65.54;96895.97;4919818;29;20087;-78
2023/06/28 04:42:16;;;;;;;2.67;2.17;;;;;;;16.50;65.37;96894.13;4921643;29;20544;-79
2023/06/28 04:44:46;;;;;;;4.25;2.55;;;;;;;16.49;65.26;96901.25;4944746;29;20143;-82
2023/06/28 04:47:16;;;;;;;4.85;2.60;;;;;;;16.50;65.46;96894.13;4937604;29;20055;-83
2023/06/28 04:49:46;;;;;;;3.03;2.05;;;;;;;16.56;65.85;96893.31;4939056;29;20228;-80
2023/06/28 04:52:15;;;;;;;3.03;2.15;;;;;;;16.63;65.24;96901.94;4923278;29;20080;-79
2023/06/28 04:54:42;;;;;;;7.13;2.58;;;;;;;16.63;65.20;96884.31;4923046;29;20063;-77
2023/06/28 04:57:10;;;;;;;5.38;2.88;;;;;;;16.65;65.33;96887.56;4934326;29;20523;-78
2023/06/28 04:59:38;;;;;;;3.55;2.53;;;;;;;16.65;65.21;96886.75;4935417;29;20084;-79
2023/06/28 05:02:05;;;;;;;3.28;2.40;;;;;;;16.70;65.68;96886.91;4924166;29;20060;-77
2023/06/28 05:04:33;;;;;;;4.75;3.30;;;;;;;16.75;65.03;96895.00;4919645;29;20056;-77
2023/06/28 05:07:03;;;;;;;3.70;2.85;;;;;;;16.79;65.42;96888.28;4926275;29;20044;-79
2023/06/28 05:09:33;;;;;;;4.35;2.72;;;;;;;16.86;65.10;96891.69;4928956;29;20401;-77
2023/06/28 05:12:02;;;;;;;3.58;2.42;;;;;;;16.86;64.14;96894.34;4939231;29;20059;-77
2023/06/28 05:14:31;;;;;;;4.25;2.65;;;;;;;16.82;64.76;96885.25;4930727;29;20044;-77
2023/06/28 05:16:58;;;;;;;7.35;3.65;;;;;;;16.84;64.54;96885.84;4922392;29;20048;-77
2023/06/28 05:19:26;;;;;;;10.18;2.72;;;;;;;16.86;64.39;96885.63;4919834;29;20440;-77
2023/06/28 05:21:54;;;;;;;5.07;2.80;;;;;;;16.85;64.39;96892.69;4934206;29;20056;-79
2023/06/28 05:24:22;;;;;;;7.22;2.88;;;;;;;16.85;63.93;96890.06;4926545;29;20497;-77
2023/06/28 05:26:51;;;;;;;6.03;3.10;;;;;;;16.87;63.65;96890.66;4922031;29;20072;-77
2023/06/28 05:29:19;;;;;;;4.25;2.50;;;;;;;16.89;63.96;96883.34;4933771;29;20048;-77
2023/06/28 05:31:47;;;;;;;5.03;2.17;;;;;;;16.97;63.85;96884.13;4926733;29;20052;-75
2023/06/28 05:34:14;;;;;;;5.75;2.38;;;;;;;17.09;63.17;96885.03;4926700;29;20079;-78
2023/06/28 05:36:42;;;;;;;4.70;2.35;;;;;;;17.16;63.03;96887.59;4922441;29;20111;-80
2023/06/28 05:39:10;;;;;;;4.80;2.33;;;;;;;17.25;62.98;96881.84;4928546;29;20047;-81
2023/06/28 05:41:39;;;;;;;3.92;2.17;;;;;;;17.37;62.50;96878.50;4936276;29;20536;-77
2023/06/28 05:44:08;;;;;;;3.42;2.33;;;;;;;17.48;62.22;96885.69;4928099;29;20056;-78
2023/06/28 05:46:37;;;;;;;4.50;2.60;;;;;;;17.54;62.03;96884.81;4926302;29;20087;-77
2023/06/28 05:49:07;;;;;;;5.72;2.80;;;;;;;17.59;62.08;96892.88;4927749;29;20099;-83
2023/06/28 05:51:36;;;;;;;5.20;3.17;;;;;;;17.58;61.94;96886.00;4925626;29;20521;-81
2023/06/28 05:54:04;;;;;;;3.03;2.67;;;;;;;17.55;62.05;96891.69;4927314;29;20067;-82
2023/06/28 05:56:32;;;;;;;4.90;3.42;;;;;;;17.51;62.29;96890.50;4927907;29;20059;-84
2023/06/28 05:59:00;;;;;;;3.65;3.00;;;;;;;17.47;62.56;96892.78;4927278;29;20056;-82
2023/06/28 06:01:29;;;;;;;4.68;3.30;;;;;;;17.49;63.10;96893.38;4927327;29;20052;-81
2023/06/28 06:03:57;;;;;;;4.85;3.10;;;;;;;17.49;62.50;96896.03;4927275;29;20420;-82
2023/06/28 06:06:25;;;;;;;5.13;3.50;;;;;;;17.46;62.76;96896.44;4926689;29;20052;-81
2023/06/28 06:08:52;;;;;;;7.30;3.92;;;;;;;17.45;63.09;96896.69;4927443;29;20063;-82
2023/06/28 06:11:20;;;;;;;6.35;4.25;;;;;;;17.45;63.24;96905.38;4926636;29;20108;-82
2023/06/28 06:13:48;;;;;;;4.97;3.42;;;;;;;17.48;63.32;96901.50;4926616;29;20052;-84
2023/06/28 06:16:15;;;;;;;6.20;3.55;;;;;;;17.52;62.93;96896.63;4926418;29;20059;-81
2023/06/28 06:18:44;;;;;;;4.97;3.80;;;;;;;17.51;63.18;96895.78;4926555;29;20048;-81
2023/06/28 06:21:12;;;;;;;7.18;3.92;;;;;;;17.51;63.03;96895.78;4926252;29;20185;-80
2023/06/28 06:23:39;;;;;;;8.13;3.78;;;;;;;17.55;63.30;96901.44;4925555;29;20047;-74
2023/06/28 06:26:07;;;;;;;7.95;4.03;;;;;;;17.57;62.94;96899.38;4926238;29;20126;-77
2023/06/28 06:28:34;;;;;;;6.05;4.07;;;;;;;17.57;62.75;96902.03;4926736;29;20374;-77
2023/06/28 06:31:02;;;;;;;6.03;3.50;;;;;;;17.59;63.00;96892.88;4922339;29;20524;-76
2023/06/28 06:33:30;;;;;;;7.30;3.70;;;;;;;17.64;62.73;96903.56;4932765;29;20060;-76
2023/06/28 06:35:59;;;;;;;6.68;3.70;;;;;;;17.67;62.95;96900.50;4931974;29;20131;-74
2023/06/28 06:38:26;;;;;;;6.47;3.63;;;;;;;17.71;62.94;96904.31;4918482;29;20487;-79
2023/06/28 06:40:54;;;;;;;10.98;3.97;;;;;;;17.75;62.84;96903.88;4922592;29;20135;-78
2023/06/28 06:43:21;;;;;;;6.05;3.40;;;;;;;17.78;62.89;96903.44;4927417;29;20416;-78
2023/06/28 06:45:49;;;;;;;5.38;3.80;;;;;;;17.86;62.84;96903.16;4929767;29;20063;-78
2023/06/28 06:48:17;;;;;;;7.05;3.75;;;;;;;17.90;61.87;96906.97;4936008;29;20075;-79
2023/06/28 06:50:45;;;;;;;5.40;3.20;;;;;;;17.95;61.81;96909.78;4931949;29;20044;-77
2023/06/28 06:53:16;;;;;;;5.43;2.85;;;;;;;17.99;62.69;96908.28;4920629;29;20543;-78
2023/06/28 06:55:44;;;;;;;4.95;3.33;;;;;;;18.02;61.58;96907.06;4926112;29;20051;-77
2023/06/28 06:58:11;;;;;;;6.40;3.55;;;;;;;18.01;61.64;96916.78;4933535;29;20044;-79
2023/06/28 07:00:39;;;;;;;4.20;2.92;;;;;;;18.11;61.90;96921.56;4937746;29;20569;-78
2023/06/28 07:03:07;;;;;;;6.65;3.47;;;;;;;18.16;60.70;96919.06;4936801;29;20550;-79
2023/06/28 07:05:34;;;;;;;6.28;3.28;;;;;;;18.19;60.52;96912.53;4939316;29;20052;-79
2023/06/28 07:08:02;;;;;;;6.72;3.00;;;;;;;18.21;59.91;96919.19;4928441;29;20052;-78
2023/06/28 07:10:31;;;;;;;3.50;3.00;;;;;;;18.23;59.85;96921.59;4921846;29;20048;-77
2023/06/28 07:12:58;;;;;;;7.70;3.58;;;;;;;18.25;60.05;96915.06;4928581;29;20059;-78
2023/06/28 07:15:28;;;;;;;4.28;3.50;;;;;;;18.32;60.39;96922.91;4951602;23;20047;-76
2023/06/28 07:17:56;;;;;;;6.82;2.72;;;;;;;18.41;60.49;96926.03;4955262;29;20525;-76
2023/06/28 07:20:24;;;;;;;4.78;3.38;;;;;;;18.52;59.99;96925.31;4956873;29;20081;-77
2023/06/28 07:22:51;;;;;;;4.05;2.67;;;;;;;18.62;59.49;96922.91;4965352;29;20503;-77
2023/06/28 07:25:19;;;;;;;7.22;2.65;;;;;;;18.67;59.11;96919.59;4971307;29;20056;-76
2023/06/28 07:27:48;;;;;;;4.90;2.55;;;;;;;18.72;59.47;96920.53;4954964;29;20043;-77
2023/06/28 07:30:16;;;;;;;3.28;2.30;;;;;;;18.85;59.26;96924.06;4948353;29;20063;-76
2023/06/28 07:32:43;;;;;;;3.40;2.60;;;;;;;18.96;57.75;96919.81;4955372;29;20079;-76
2023/06/28 07:35:11;;;;;;;11.82;3.40;;;;;;;19.01;57.69;96925.25;4946894;29;20056;-76
2023/06/28 07:37:39;;;;;;;3.25;2.05;;;;;;;19.09;58.17;96919.63;4919132;29;20048;-76
2023/06/28 07:40:08;;;;;;;5.82;3.20;;;;;;;19.20;57.03;96921.47;4916740;29;20048;-75
2023/06/28 07:42:36;;;;;;;4.75;2.42;;;;;;;19.27;54.72;96922.16;4929177;29;20083;-75
2023/06/28 07:45:06;;;;;;;3.90;2.60;;;;;;;19.35;54.84;96916.53;4939362;29;20116;-75
2023/06/28 07:47:34;;;;;;;4.82;2.90;;;;;;;19.43;54.14;96917.22;4935978;29;20126;-75
2023/06/28 07:50:02;;;;;;;6.60;2.53;;;;;;;19.50;54.45;96917.91;4937619;29;20051;-76
2023/06/28 07:52:29;;;;;;;5.03;2.35;;;;;;;19.59;53.29;96916.53;4935223;29;20075;-75
2023/06/28 07:54:57;;;;;;;9.80;3.28;;;;;;;19.64;52.93;96913.19;4925380;29;20063;-75
2023/06/28 07:57:25;;;;;;;5.82;2.40;;;;;;;19.66;52.59;96914.56;4915427;29;20092;-76
2023/06/28 07:59:52;;;;;;;2.72;2.00;;;;;;;19.70;52.21;96914.94;4915212;29;20531;-75
2023/06/28 08:02:21;;;;;;;9.75;2.38;;;;;;;19.75;52.20;96915.84;4915042;29;20099;-78
2023/06/28 08:04:49;;;;;;;3.80;1.90;;;;;;;19.80;52.58;96917.81;4920244;29;20123;-76
2023/06/28 08:07:17;;;;;;;5.55;1.98;;;;;;;19.85;53.29;96919.75;4917906;29;20402;-75
2023/06/28 08:09:44;;;;;;;4.45;2.20;;;;;;;19.90;52.53;96917.22;4920606;29;20556;-76
2023/06/28 08:12:12;;;;;;;3.38;1.67;;;;;;;19.97;52.50;96923.19;4915554;29;20091;-76
2023/06/28 08:14:40;;;;;;;5.03;2.50;;;;;;;20.03;51.77;96922.25;4915121;29;20052;-77
2023/06/28 08:17:08;;;;;;;7.18;2.17;;;;;;;20.08;51.58;96919.69;4916920;29;20176;-76
2023/06/28 08:19:37;;;;;;;2.70;2.05;;;;;;;20.14;51.24;96923.28;4932354;29;20079;-75
2023/06/28 08:22:05;;;;;;;3.80;2.00;;;;;;;20.22;51.65;96919.44;4896718;29;20477;-76
2023/06/28 08:24:33;;;;;;;4.35;2.30;;;;;;;20.30;50.26;96922.50;4916576;29;20126;-74
2023/06/28 08:27:00;;;;;;;2.15;1.60;;;;;;;20.38;50.91;96911.56;4918604;29;20048;-75
2023/06/28 08:29:28;;;;;;;3.65;1.90;;;;;;;20.52;50.36;96916.56;4915345;29;20104;-76
2023/06/28 08:31:55;;;;;;;3.85;2.03;;;;;;;20.68;50.79;96912.34;4927669;29;20083;-74
2023/06/28 08:34:23;;;;;;;4.00;2.47;;;;;;;20.81;49.80;96909.41;4933929;29;20075;-75
2023/06/28 08:36:52;;;;;;;5.90;2.20;;;;;;;20.90;49.29;96915.94;4927175;29;20476;-75
2023/06/28 08:39:20;;;;;;;4.43;2.03;;;;;;;21.02;49.04;96917.72;4915341;29;20075;-74
2023/06/28 08:41:49;;;;;;;2.60;1.75;;;;;;;21.11;48.70;96921.56;4915041;29;20083;-74
2023/06/28 08:44:21;;;;;;;2.50;1.80;;;;;;;21.21;48.11;96919.09;4915945;29;20135;-74
2023/06/28 08:46:50;;;;;;;6.63;2.08;;;;;;;21.33;47.45;96921.66;4922816;29;20052;-75
2023/06/28 08:49:20;;;;;;;3.60;2.17;;;;;;;21.38;47.12;96922.53;4922216;29;20048;-75
2023/06/28 08:51:48;;;;;;;5.22;2.22;;;;;;;21.48;46.92;96910.47;4915237;29;20083;-75
2023/06/28 08:54:18;;;;;;;3.17;2.30;;;;;;;21.60;46.57;96916.47;4930463;29;20048;-75
2023/06/28 08:56:47;;;;;;;4.43;2.63;;;;;;;21.65;46.10;96907.81;4933541;29;20480;-75
2023/06/28 08:59:32;;;;;;;4.75;1.83;;;;;;;21.69;45.43;96903.59;4917900;29;20551;-75
2023/06/28 09:02:01;;;;;;;9.60;2.85;;;;;;;21.68;45.58;96905.44;4930448;29;20083;-75
2023/06/28 09:04:30;;;;;;;6.38;2.33;;;;;;;21.69;44.77;96907.06;4923634;29;20063;-75
2023/06/28 09:06:58;;;;;;;4.07;2.20;;;;;;;21.67;44.74;96898.53;4919003;29;20060;-74
2023/06/28 09:09:29;;;;;;;4.40;2.03;;;;;;;21.78;44.77;96897.63;4917643;29;20048;-74
2023/06/28 09:11:57;;;;;;;4.82;2.13;;;;;;;21.92;44.49;96889.28;4924513;29;20044;-75
2023/06/28 09:14:24;;;;;;;4.57;2.35;;;;;;;21.97;44.20;96886.69;4906910;29;20080;-75
2023/06/28 09:16:52;;;;;;;7.18;2.30;;;;;;;22.04;44.04;96889.97;4918768;29;20608;-75
2023/06/28 09:19:19;;;;;;;5.60;2.05;;;;;;;22.16;44.25;96890.63;4912287;29;20558;-75
2023/06/28 09:21:47;;;;;;;4.22;2.03;;;;;;;22.27;44.37;96890.78;4914853;29;20056;-75
2023/06/28 09:24:15;;;;;;;5.47;1.77;;;;;;;22.35;44.30;96895.66;4912783;29;20115;-74
2023/06/28 09:26:44;;;;;;;4.25;2.20;;;;;;;22.50;44.01;96897.66;4918710;29;20080;-74
2023/06/28 09:29:13;;;;;;;4.30;2.55;;;;;;;22.65;44.41;96892.50;4918103;29;20056;-75
2023/06/28 09:31:41;;;;;;;2.78;2.00;;;;;;;22.82;43.60;96892.38;4929377;29;20085;-75
2023/06/28 09:34:10;;;;;;;5.63;2.17;;;;;;;22.97;42.96;96895.16;4925225;29;20055;-75
2023/06/28 09:36:37;;;;;;;5.45;2.20;;;;;;;23.10;41.94;96888.66;4917572;29;20480;-75
2023/06/28 09:39:07;;;;;;;4.82;1.83;;;;;;;23.21;41.76;96894.84;4916222;29;20099;-75
2023/06/28 09:41:39;;;;;;;1.65;1.55;;;;;;;23.32;41.15;96899.19;4923777;29;20164;-75
2023/06/28 09:44:09;;;;;;;3.97;2.00;;;;;;;23.38;40.81;96898.16;4928038;29;20056;-74
2023/06/28 09:46:43;;;;;;;2.80;2.08;;;;;;;23.47;41.18;96895.81;4916683;29;20052;-75
2023/06/28 09:49:21;;;;;;;3.67;1.83;;;;;;;23.54;39.76;96891.06;4921681;29;20067;-75
2023/06/28 09:51:56;;;;;;;3.35;1.73;;;;;;;23.58;40.08;96889.50;4936806;29;20063;-75
2023/06/28 09:54:29;;;;;;;3.38;1.83;;;;;;;23.58;40.46;96881.50;4929051;29;20040;-76
2023/06/28 09:56:58;;;;;;;5.28;2.40;;;;;;;23.63;40.55;96878.06;4917130;29;20044;-75
2023/06/28 09:59:33;;;;;;;5.65;2.30;;;;;;;23.63;38.54;96878.06;4917546;29;20048;-74
2023/06/28 10:02:05;;;;;;;6.22;2.67;;;;;;;23.67;39.11;96876.50;4917175;29;20056;-75
2023/06/28 10:04:35;;;;;;;4.60;2.13;;;;;;;23.72;38.79;96884.50;4918025;29;20052;-74
2023/06/28 10:07:04;;;;;;;4.80;2.28;;;;;;;23.73;38.09;96880.78;4921306;29;20079;-75
2023/06/28 10:09:35;;;;;;;3.60;2.00;;;;;;;23.76;37.29;96877.63;4922972;29;20048;-76
2023/06/28 10:12:06;;;;;;;13.90;2.72;;;;;;;23.83;38.25;96872.88;4936248;29;20151;-74
2023/06/28 10:14:39;;;;;;;5.38;1.67;;;;;;;23.87;37.63;96875.03;4927502;29;20052;-70
2023/06/28 10:17:09;;;;;;;3.80;1.95;;;;;;;23.83;37.92;96874.72;4919590;29;20516;-73
2023/06/28 10:19:37;;;;;;;6.03;2.00;;;;;;;23.74;38.09;96870.94;4917743;29;20052;-77
2023/06/28 10:22:05;;;;;;;5.65;1.73;;;;;;;23.65;37.33;96879.41;4917391;29;20476;-76
2023/06/28 10:24:37;;;;;;;6.55;2.78;;;;;;;23.59;37.01;96876.97;4918293;29;20107;-76
2023/06/28 10:27:05;;;;;;;2.50;1.63;;;;;;;23.56;37.91;96869.53;4916920;29;20075;-77
2023/06/28 10:29:33;;;;;;;2.30;1.60;;;;;;;23.56;37.84;96878.31;4917099;29;20080;-76
2023/06/28 10:32:03;;;;;;;7.95;2.47;;;;;;;23.54;36.76;96882.28;4918295;29;20094;-76
2023/06/28 10:34:33;;;;;;;4.45;1.92;;;;;;;23.51;37.59;96866.84;4916920;29;20071;-76
2023/06/28 10:37:00;;;;;;;5.45;1.90;;;;;;;23.47;37.80;96871.88;4916342;29;20056;-77
2023/06/28 10:39:29;;;;;;;4.32;1.75;;;;;;;23.42;39.56;96861.19;4916852;29;20480;-76
2023/06/28 10:41:58;;;;;;;6.20;1.90;;;;;;;23.40;37.77;96872.09;4916518;29;20138;-77
2023/06/28 10:44:26;;;;;;;6.00;1.80;;;;;;;23.34;38.84;96857.16;4917030;29;20052;-76
2023/06/28 10:47:12;;;;;;;2.53;1.20;;;;;;;23.29;38.61;96870.44;4928937;29;20480;-77
2023/06/28 10:49:40;;;;;;;2.38;1.50;;;;;;;23.28;38.17;96857.38;4928797;29;20063;-78
2023/06/28 10:52:14;;;;;;;1.80;1.42;;;;;;;23.28;37.87;96868.81;4917693;29;20052;-77
2023/06/28 10:54:41;;;;;;;2.47;1.38;;;;;;;23.23;39.15;96864.25;4919374;29;20468;-77
2023/06/28 10:57:11;;;;;;;2.30;1.73;;;;;;;23.16;40.12;96869.00;4916346;29;20052;-76
2023/06/28 10:59:41;;;;;;;4.90;1.83;;;;;;;23.07;38.56;96857.25;4931784;29;20134;-75
2023/06/28 11:02:09;;;;;;;5.40;2.15;;;;;;;23.02;37.67;96858.00;4935216;29;20063;-77
2023/06/28 11:04:50;;;;;;;3.10;2.08;;;;;;;22.94;41.37;96858.44;4934574;29;20059;-76
2023/06/28 11:07:23;;;;;;;6.25;1.83;;;;;;;22.88;38.67;96853.34;4933939;29;20060;-76
2023/06/28 11:10:11;;;;;;;2.83;1.83;;;;;;;22.85;38.90;96854.66;4920406;29;20131;-76
2023/06/28 11:12:39;;;;;;;2.80;1.58;;;;;;;22.88;38.97;96850.69;4933272;29;20047;-77
2023/06/28 11:15:08;;;;;;;3.85;1.50;;;;;;;22.91;38.87;96858.94;4934109;29;20060;-76
2023/06/28 11:17:36;;;;;;;4.05;1.60;;;;;;;22.95;38.30;96854.72;4915590;29;20048;-76
2023/06/28 11:20:10;;;;;;;3.88;1.73;;;;;;;23.02;38.84;96858.00;4917395;29;20527;-76
2023/06/28 11:22:49;;;;;;;7.35;1.83;;;;;;;23.12;38.66;96853.81;4921032;29;20051;-77
2023/06/28 11:25:16;;;;;;;4.15;1.75;;;;;;;23.15;37.41;96861.28;4925295;29;20091;-76
2023/06/28 11:27:46;;;;;;;2.20;1.05;;;;;;;23.14;38.51;96849.03;4933156;29;20051;-76
2023/06/28 11:30:15;;;;;;;2.85;1.55;;;;;;;23.17;38.04;96851.97;4933282;29;21539;-76
2023/06/28 11:32:43;;;;;;;1.77;1.38;;;;;;;23.23;37.99;96850.94;4911624;29;20052;-76
2023/06/28 11:35:13;;;;;;;3.47;1.50;;;;;;;23.30;39.07;96856.06;4914490;29;20472;-76
2023/06/28 11:37:41;;;;;;;3.75;1.55;;;;;;;23.33;36.52;96850.22;4920116;29;20052;-76
2023/06/28 11:40:10;;;;;;;9.02;1.65;;;;;;;23.35;36.70;96857.94;4917667;29;20052;-77
2023/06/28 11:42:44;;;;;;;4.43;1.73;;;;;;;23.35;38.51;96847.28;4920539;29;20048;-76
2023/06/28 11:45:13;;;;;;;3.15;1.38;;;;;;;23.33;37.32;96852.91;4926788;29;20111;-76
2023/06/28 11:47:40;;;;;;;2.90;1.30;;;;;;;23.32;36.38;96848.63;4910488;29;20056;-78
2023/06/28 11:50:08;;;;;;;3.72;1.38;;;;;;;23.28;38.45;96842.19;4917921;29;20048;-76
2023/06/28 11:52:38;;;;;;;2.05;1.15;;;;;;;23.22;38.02;96843.22;4917020;29;20481;-78
2023/06/28 11:55:06;;;;;;;3.92;1.67;;;;;;;23.20;37.44;96846.16;4916626;29;20051;-76
2023/06/28 11:57:43;;;;;;;4.32;2.10;;;;;;;23.23;37.14;96855.47;4929557;29;20554;-76
2023/06/28 12:00:12;;;;;;;2.08;1.50;;;;;;;23.30;37.22;96847.28;4932810;29;20044;-76
2023/06/28 12:02:47;;;;;;;2.83;1.30;;;;;;;23.39;37.00;96854.50;4916181;29;20056;-76
2023/06/28 12:05:17;;;;;;;4.50;1.63;;;;;;;23.47;36.99;96852.44;4933024;29;20048;-76
2023/06/28 12:07:46;;;;;;;1.60;1.33;;;;;;;23.55;36.31;96857.25;4925799;29;20056;-77
2023/06/28 12:10:16;;;;;;;2.38;1.50;;;;;;;23.59;35.87;96853.84;4936944;29;20467;-76
2023/06/28 12:12:44;;;;;;;4.70;1.67;;;;;;;23.58;35.19;96854.09;4929331;29;20115;-76
2023/06/28 12:15:13;;;;;;;2.58;1.13;;;;;;;23.54;35.72;96850.34;4918077;29;20123;-76
2023/06/28 12:17:42;;;;;;;2.10;1.10;;;;;;;23.54;35.49;96842.34;4935357;29;20059;-76
2023/06/28 12:20:11;;;;;;;4.50;1.10;;;;;;;23.55;35.58;96839.44;4935710;29;20113;-76
2023/06/28 12:22:39;;;;;;;4.95;1.42;;;;;;;23.60;36.07;96841.31;4922646;29;20059;-76
2023/06/28 12:25:09;;;;;;;1.83;1.30;;;;;;;23.70;36.27;96848.53;4916551;29;20068;-76
2023/06/28 12:27:38;;;;;;;1.85;1.38;;;;;;;23.77;35.81;96844.63;4916142;29;20508;-76
2023/06/28 12:30:10;;;;;;;2.95;1.42;;;;;;;23.80;35.39;96843.28;4923928;29;20135;-76
2023/06/28 12:32:43;;;;;;;1.55;1.45;;;;;;;23.79;35.63;96839.00;4925775;29;20409;-77
2023/06/28 12:35:21;;;;;;;2.03;1.23;;;;;;;23.79;36.21;96839.00;4921326;29;20493;-77
2023/06/28 12:37:54;;;;;;;2.45;1.20;;;;;;;23.78;35.96;96838.22;4918819;29;20140;-76
2023/06/28 12:40:24;;;;;;;2.95;1.50;;;;;;;23.79;35.88;96836.34;4920154;29;20088;-76
2023/06/28 12:43:11;;;;;;;1.20;1.10;;;;;;;23.78;35.73;96838.22;4920020;29;20111;-78
2023/06/28 12:45:47;;;;;;;2.72;1.25;;;;;;;23.78;35.85;96838.22;4930136;29;20050;-78